Time;durP1;ratioP1;P1;durP2;ratioP2;P2;SDS_P1;SDS_P2;PMS_P1;PMS_P2;Temp;Humidity;BMP_temperature;BMP_pressure;BME280_temperature;BME280_humidity;BME280_pressure;Samples;Min_cycle;Max_cycle;Signal;HPM_P1;HPM_P2
2022/03/03 00:02:24;;;;;;;12.77;9.20;;;;;;;6.65;53.49;94462.75;5053973;28;20868;-85
2022/03/03 00:04:51;;;;;;;13.53;9.23;;;;;;;6.65;53.41;94457.66;5053804;28;20191;-81
2022/03/03 00:07:18;;;;;;;11.63;8.97;;;;;;;6.64;53.42;94459.41;5053792;28;20186;-84
2022/03/03 00:09:45;;;;;;;12.20;8.30;;;;;;;6.55;53.42;94449.94;5052157;28;20653;-81
2022/03/03 00:12:13;;;;;;;12.03;8.80;;;;;;;5.83;53.43;94338.72;5054003;28;20219;-84
2022/03/03 00:14:40;;;;;;;10.90;8.23;;;;;;;6.61;53.68;94446.94;5053075;28;20195;-84
2022/03/03 00:17:07;;;;;;;12.87;9.10;;;;;;;6.61;53.62;94448.69;5054216;28;20191;-84
2022/03/03 00:19:34;;;;;;;10.10;8.40;;;;;;;6.61;53.44;94451.22;5053641;28;20223;-83
2022/03/03 00:22:00;;;;;;;12.10;8.87;;;;;;;6.60;53.55;94444.50;5055173;28;20357;-82
2022/03/03 00:24:27;;;;;;;11.17;8.57;;;;;;;6.59;53.48;94448.00;5053371;28;20195;-84
2022/03/03 00:26:54;;;;;;;11.80;8.30;;;;;;;6.24;53.38;94388.03;5053465;28;20199;-83
2022/03/03 00:29:23;;;;;;;11.40;9.03;;;;;;;6.59;53.52;94432.75;5055451;28;20584;-85
2022/03/03 00:31:50;;;;;;;13.93;9.60;;;;;;;6.60;53.61;94439.44;5054698;28;20218;-84
2022/03/03 00:34:17;;;;;;;12.53;8.87;;;;;;;6.58;53.78;94438.75;5052315;28;20555;-84
2022/03/03 00:36:43;;;;;;;10.93;8.37;;;;;;;6.58;53.87;94441.31;5053622;28;20558;-81
2022/03/03 00:39:10;;;;;;;10.97;9.20;;;;;;;6.59;53.80;94437.81;5053220;28;20199;-84
2022/03/03 00:41:37;;;;;;;9.37;8.37;;;;;;;6.59;53.70;94442.91;5053620;28;20195;-79
2022/03/03 00:44:06;;;;;;;9.57;7.90;;;;;;;6.58;53.81;94438.75;5055511;28;20222;-84
2022/03/03 00:46:34;;;;;;;10.00;7.90;;;;;;;6.57;53.81;94435.41;5055612;28;20646;-82
2022/03/03 00:49:01;;;;;;;10.70;8.67;;;;;;;6.58;53.87;94443.84;5054647;28;20202;-83
2022/03/03 00:51:28;;;;;;;9.83;8.13;;;;;;;6.59;53.81;94438.63;5053786;28;20191;-84
2022/03/03 00:53:55;;;;;;;11.97;9.00;;;;;;;6.60;53.90;94437.69;5053806;28;20662;-85
2022/03/03 00:56:22;;;;;;;10.97;8.13;;;;;;;6.60;54.03;94436.88;5054296;28;20569;-84
2022/03/03 00:58:49;;;;;;;12.27;8.30;;;;;;;6.60;54.14;94439.44;5050870;28;20190;-80
2022/03/03 01:01:16;;;;;;;12.80;9.07;;;;;;;6.60;54.08;94436.88;5052312;28;20201;-84
2022/03/03 01:03:45;;;;;;;12.97;8.87;;;;;;;6.60;53.90;94435.16;5052117;28;20241;-85
2022/03/03 01:06:13;;;;;;;12.77;9.10;;;;;;;6.60;53.99;94429.28;5052600;28;20198;-85
2022/03/03 01:08:40;;;;;;;12.20;9.30;;;;;;;6.59;53.90;94425.94;5052209;28;20191;-83
2022/03/03 01:11:07;;;;;;;11.00;8.43;;;;;;;6.60;53.84;94436.88;5051744;28;20187;-84
2022/03/03 01:13:35;;;;;;;9.80;8.60;;;;;;;6.60;54.13;94431.81;5052106;28;20294;-83
2022/03/03 01:16:02;;;;;;;10.93;8.53;;;;;;;6.32;53.86;94383.19;5052120;28;20191;-84
2022/03/03 01:18:29;;;;;;;13.83;9.60;;;;;;;6.40;54.04;94398.63;5052213;28;20195;-81
2022/03/03 01:20:57;;;;;;;11.30;8.63;;;;;;;6.61;53.96;94428.38;5052110;28;20326;-83
2022/03/03 01:23:25;;;;;;;15.63;9.77;;;;;;;6.47;53.92;94404.81;5051427;28;20218;-80
2022/03/03 01:25:52;;;;;;;12.00;8.97;;;;;;;6.39;54.28;94396.19;5051847;28;20557;-82
2022/03/03 01:28:19;;;;;;;10.67;9.23;;;;;;;6.59;54.12;94423.38;5052102;28;20195;-84
2022/03/03 01:30:46;;;;;;;13.37;9.27;;;;;;;6.53;54.22;94408.63;5052789;28;20202;-81
2022/03/03 01:33:13;;;;;;;12.97;9.17;;;;;;;6.61;54.16;94418.19;5055281;28;20202;-81
2022/03/03 01:35:40;;;;;;;12.33;8.70;;;;;;;6.61;54.12;94418.19;5055701;28;20187;-84
2022/03/03 01:38:09;;;;;;;12.47;9.27;;;;;;;6.59;54.25;94418.31;5052090;28;20587;-83
2022/03/03 01:40:36;;;;;;;9.50;8.07;;;;;;;6.54;54.15;94405.16;5051857;28;20202;-84
2022/03/03 01:43:03;;;;;;;12.17;9.33;;;;;;;6.41;54.19;94376.56;5057824;28;20573;-81
2022/03/03 01:45:30;;;;;;;11.30;9.27;;;;;;;6.59;54.27;94408.16;5053667;28;20199;-83
2022/03/03 01:47:57;;;;;;;11.87;8.57;;;;;;;6.60;54.12;94407.22;5054415;28;20190;-81
2022/03/03 01:50:24;;;;;;;12.47;8.87;;;;;;;6.60;54.15;94404.66;5054630;28;20568;-82
2022/03/03 01:52:51;;;;;;;11.50;9.13;;;;;;;6.31;54.06;94356.19;5052169;28;20573;-82
2022/03/03 01:55:21;;;;;;;12.47;8.33;;;;;;;6.60;54.46;94399.59;5051333;28;20183;-82
2022/03/03 01:57:49;;;;;;;12.47;9.20;;;;;;;6.60;54.34;94398.78;5051183;28;20191;-83
2022/03/03 02:00:17;;;;;;;10.67;9.27;;;;;;;6.47;54.41;94371.81;5051129;28;20210;-82
2022/03/03 02:02:46;;;;;;;13.30;9.07;;;;;;;6.59;54.53;94387.81;5050930;28;20222;-83
2022/03/03 02:05:13;;;;;;;13.40;9.50;;;;;;;6.59;54.49;94390.34;5051228;28;20179;-81
2022/03/03 02:07:41;;;;;;;15.90;8.97;;;;;;;6.48;54.60;94372.63;5050921;28;20191;-83
2022/03/03 02:10:08;;;;;;;13.80;9.57;;;;;;;6.58;54.64;94391.28;5050642;28;20218;-82
2022/03/03 02:12:36;;;;;;;11.73;9.07;;;;;;;6.58;54.55;94396.38;5050909;28;20191;-85
2022/03/03 02:15:04;;;;;;;12.67;9.53;;;;;;;6.46;54.69;94371.94;5051307;28;20191;-83
2022/03/03 02:17:31;;;;;;;11.73;9.57;;;;;;;6.58;54.61;94390.50;5049422;28;20199;-85
2022/03/03 02:19:58;;;;;;;12.03;10.13;;;;;;;6.58;54.61;94390.50;5051457;28;20697;-84
2022/03/03 02:22:26;;;;;;;12.90;8.87;;;;;;;6.51;54.57;94380.78;5050739;28;20194;-80
2022/03/03 02:24:53;;;;;;;13.33;9.43;;;;;;;6.45;54.50;94372.88;5050920;28;20219;-81
2022/03/03 02:27:22;;;;;;;11.27;9.73;;;;;;;6.57;54.92;94391.44;5051007;28;20217;-82
2022/03/03 02:29:50;;;;;;;10.67;8.97;;;;;;;6.56;54.94;94395.69;5050767;28;20191;-84
2022/03/03 02:32:17;;;;;;;14.27;9.73;;;;;;;6.53;54.77;94390.84;5050469;28;20191;-83
2022/03/03 02:34:49;;;;;;;13.37;10.20;;;;;;;6.58;54.94;94387.94;5050932;28;20183;-83
2022/03/03 02:37:16;;;;;;;13.07;9.57;;;;;;;6.59;54.95;94392.91;5050221;28;20281;-85
2022/03/03 02:39:45;;;;;;;14.83;10.37;;;;;;;6.46;54.76;94371.94;5050532;28;20567;-78
2022/03/03 02:42:12;;;;;;;13.03;9.53;;;;;;;6.63;55.06;94396.00;5050188;28;20670;-82
2022/03/03 02:44:39;;;;;;;12.63;9.57;;;;;;;6.63;54.85;94396.81;5050680;28;20206;-80
2022/03/03 02:47:06;;;;;;;15.13;10.90;;;;;;;6.58;54.86;94383.66;5050053;28;20187;-82
2022/03/03 02:49:34;;;;;;;10.97;9.07;;;;;;;6.65;54.83;94397.50;5050082;28;20650;-84
2022/03/03 02:52:01;;;;;;;12.43;8.87;;;;;;;6.57;54.92;94374.44;5049410;28;20194;-81
2022/03/03 02:54:28;;;;;;;12.10;9.27;;;;;;;6.65;54.87;94391.59;5050259;28;20195;-83
2022/03/03 02:59:40;;;;;;;14.17;9.43;;;;;;;6.64;55.28;94390.00;5050506;28;20193;-81
2022/03/03 03:02:07;;;;;;;15.10;9.00;;;;;;;6.64;55.18;94395.06;5049926;28;20191;-83
2022/03/03 03:04:34;;;;;;;14.40;9.93;;;;;;;6.41;55.25;94361.34;5050673;28;20221;-84
2022/03/03 03:07:01;;;;;;;17.17;9.80;;;;;;;6.58;55.17;94382.88;5050111;28;20196;-84
2022/03/03 03:09:28;;;;;;;11.50;9.63;;;;;;;5.87;55.34;94273.28;5049933;28;20656;-82
2022/03/03 03:11:56;;;;;;;12.70;10.47;;;;;;;6.61;55.46;94385.97;5050518;28;20191;-84
2022/03/03 03:14:23;;;;;;;16.50;9.77;;;;;;;6.61;55.47;94385.19;5050682;28;20547;-84
2022/03/03 03:16:50;;;;;;;12.30;10.47;;;;;;;6.52;55.36;94372.28;5050527;28;20700;-83
2022/03/03 03:19:16;;;;;;;12.77;10.20;;;;;;;6.43;55.54;94364.53;5050518;28;20292;-83
2022/03/03 03:21:43;;;;;;;13.73;10.40;;;;;;;5.92;55.55;94289.81;5049713;28;20191;-84
2022/03/03 03:24:10;;;;;;;16.07;10.73;;;;;;;6.57;55.57;94388.88;5050128;28;20222;-82
2022/03/03 03:26:39;;;;;;;13.07;10.10;;;;;;;6.48;55.66;94375.19;5050597;28;20184;-83
2022/03/03 03:29:07;;;;;;;13.63;10.70;;;;;;;6.56;55.63;94382.16;5049418;28;20187;-83
2022/03/03 03:31:36;;;;;;;14.67;10.70;;;;;;;6.53;55.86;94386.56;5050028;28;20191;-83
2022/03/03 03:34:03;;;;;;;16.53;10.83;;;;;;;6.48;55.80;94377.72;5049946;28;20195;-79
2022/03/03 03:36:29;;;;;;;14.37;11.10;;;;;;;6.29;55.96;94347.84;5050177;28;20195;-82
2022/03/03 03:38:57;;;;;;;13.93;10.77;;;;;;;6.34;56.02;94360.19;5049891;28;20199;-82
2022/03/03 03:41:24;;;;;;;15.60;11.47;;;;;;;6.51;55.96;94395.22;5049938;28;20197;-82
2022/03/03 03:43:51;;;;;;;14.23;10.73;;;;;;;6.24;55.76;94340.59;5049679;28;20214;-83
2022/03/03 03:46:19;;;;;;;15.30;11.10;;;;;;;6.33;55.93;94358.59;5050077;28;20621;-82
2022/03/03 03:48:46;;;;;;;13.17;10.83;;;;;;;6.51;56.06;94377.44;5049978;28;20570;-82
2022/03/03 03:51:13;;;;;;;15.13;10.90;;;;;;;6.42;56.08;94368.81;5050212;28;20195;-83
2022/03/03 03:53:40;;;;;;;14.63;10.57;;;;;;;6.48;56.17;94382.78;5050234;28;20195;-83
2022/03/03 03:56:07;;;;;;;13.27;10.07;;;;;;;6.47;56.09;94392.13;5049943;28;20593;-83
2022/03/03 03:58:34;;;;;;;14.23;10.60;;;;;;;6.26;56.14;94354.00;5050301;28;20286;-82
2022/03/03 04:01:01;;;;;;;14.33;11.07;;;;;;;6.14;55.97;94342.25;5049823;28;20850;-83
2022/03/03 04:03:29;;;;;;;15.10;10.93;;;;;;;6.47;56.06;94391.31;5050500;28;20227;-81
2022/03/03 04:05:56;;;;;;;15.67;11.23;;;;;;;6.14;56.16;94342.25;5053489;28;20195;-83
2022/03/03 04:08:23;;;;;;;15.70;11.00;;;;;;;6.39;55.85;94375.88;5052937;28;20198;-81
2022/03/03 04:10:50;;;;;;;13.87;10.53;;;;;;;6.46;56.24;94382.09;5053205;28;20175;-83
2022/03/03 04:13:17;;;;;;;15.23;11.33;;;;;;;6.46;56.20;94374.47;5054109;28;20682;-83
2022/03/03 04:15:44;;;;;;;18.20;11.37;;;;;;;6.37;56.26;94362.50;5053634;28;20197;-82
2022/03/03 04:18:11;;;;;;;16.87;11.67;;;;;;;6.18;56.18;94325.06;5053659;28;20214;-84
2022/03/03 04:20:39;;;;;;;15.50;10.70;;;;;;;6.37;56.09;94358.22;5052568;28;20590;-84
2022/03/03 04:23:06;;;;;;;13.90;10.73;;;;;;;5.96;56.13;94303.91;5053742;28;20195;-82
2022/03/03 04:25:33;;;;;;;14.77;10.67;;;;;;;6.13;55.89;94344.91;5053834;28;20218;-81
2022/03/03 04:28:02;;;;;;;18.27;10.77;;;;;;;6.46;56.02;94397.34;5053720;28;20187;-83
2022/03/03 04:30:30;;;;;;;16.23;10.77;;;;;;;6.47;56.20;94387.03;5053057;28;20179;-82
2022/03/03 04:32:57;;;;;;;14.90;10.63;;;;;;;6.47;56.04;94386.25;5053097;28;20245;-82
2022/03/03 04:35:24;;;;;;;15.90;11.27;;;;;;;6.48;56.17;94381.06;5052971;28;20191;-81
2022/03/03 04:37:52;;;;;;;13.13;10.97;;;;;;;6.47;56.22;94371.81;5052088;28;20241;-83
2022/03/03 04:40:19;;;;;;;14.37;10.43;;;;;;;6.49;56.31;94374.25;5052418;28;20214;-82
2022/03/03 04:42:46;;;;;;;15.37;11.07;;;;;;;6.48;56.17;94370.91;5053033;28;20187;-82
2022/03/03 04:45:13;;;;;;;15.17;11.67;;;;;;;6.50;56.13;94373.31;5053663;28;20234;-80
2022/03/03 04:47:40;;;;;;;16.00;11.73;;;;;;;6.48;56.35;94365.03;5063727;28;20202;-81
2022/03/03 04:50:09;;;;;;;13.87;11.50;;;;;;;6.48;56.23;94375.19;5054354;28;20191;-79
2022/03/03 04:52:36;;;;;;;18.17;11.60;;;;;;;6.48;56.27;94365.03;5032660;28;20198;-78
2022/03/03 04:55:04;;;;;;;16.37;11.23;;;;;;;6.41;56.21;94351.19;5032847;28;20200;-81
2022/03/03 04:57:31;;;;;;;15.30;12.13;;;;;;;6.48;56.13;94367.56;5032456;28;20279;-84
2022/03/03 04:59:59;;;;;;;14.63;11.50;;;;;;;6.47;56.10;94369.25;5034524;28;20188;-83
2022/03/03 05:02:26;;;;;;;13.90;10.93;;;;;;;6.41;56.25;94358.78;5051916;28;20253;-83
2022/03/03 05:04:53;;;;;;;17.83;11.67;;;;;;;6.46;56.24;94365.13;5052277;28;20222;-83
2022/03/03 05:07:19;;;;;;;16.23;10.87;;;;;;;6.47;56.21;94366.72;5052772;28;20191;-81
2022/03/03 05:09:46;;;;;;;19.53;11.70;;;;;;;6.48;56.29;94368.34;5051765;28;20198;-82
2022/03/03 05:12:14;;;;;;;14.07;10.47;;;;;;;6.48;56.21;94367.56;5052092;28;20187;-80
2022/03/03 05:14:41;;;;;;;15.67;11.27;;;;;;;6.47;56.37;94369.25;5051614;28;20546;-76
2022/03/03 05:17:08;;;;;;;15.53;10.53;;;;;;;6.20;56.33;94318.13;5050086;28;20198;-79
2022/03/03 05:19:36;;;;;;;13.70;10.23;;;;;;;6.31;56.37;94332.53;5051359;28;20218;-79
2022/03/03 05:22:03;;;;;;;14.07;10.87;;;;;;;6.50;56.21;94360.59;5051764;28;20199;-81
2022/03/03 05:24:29;;;;;;;14.40;10.97;;;;;;;6.50;56.21;94366.50;5051834;28;20234;-79
2022/03/03 05:26:56;;;;;;;14.33;10.90;;;;;;;6.16;55.97;94316.75;5051663;28;20187;-83
2022/03/03 05:29:25;;;;;;;14.23;10.17;;;;;;;6.38;56.04;94351.41;5051139;28;20191;-79
2022/03/03 05:31:52;;;;;;;12.43;10.17;;;;;;;6.51;56.10;94378.25;5051393;28;20245;-80
2022/03/03 05:34:19;;;;;;;16.13;11.67;;;;;;;6.53;56.06;94370.53;5050856;28;20187;-81
2022/03/03 05:36:46;;;;;;;16.57;10.53;;;;;;;6.48;56.02;94365.03;5051229;28;20187;-84
2022/03/03 05:39:14;;;;;;;15.97;11.27;;;;;;;6.57;55.95;94382.06;5053674;28;20199;-83
2022/03/03 05:41:41;;;;;;;12.90;11.20;;;;;;;6.58;55.92;94376.06;5051529;28;20187;-82
2022/03/03 05:44:12;;;;;;;14.43;10.53;;;;;;;6.47;55.75;94351.47;5041610;28;20227;-83
2022/03/03 05:46:43;;;;;;;17.27;11.50;;;;;;;6.65;55.59;94381.44;5031421;28;20300;-81
2022/03/03 05:49:10;;;;;;;15.90;10.83;;;;;;;6.67;55.66;94371.97;5051238;28;20194;-80
2022/03/03 05:51:37;;;;;;;15.13;10.20;;;;;;;6.69;55.44;94376.03;5050629;28;20180;-84
2022/03/03 05:54:04;;;;;;;16.13;11.53;;;;;;;6.66;55.34;94362.75;5051721;28;20199;-84
2022/03/03 05:56:37;;;;;;;16.53;11.00;;;;;;;6.77;54.99;94370.31;5051245;28;20190;-84
2022/03/03 05:59:07;;;;;;;14.77;10.93;;;;;;;6.81;55.09;94379.28;5051292;28;20198;-77
2022/03/03 06:01:36;;;;;;;17.83;11.70;;;;;;;6.86;55.08;94384.81;5050893;28;20183;-82
2022/03/03 06:04:08;;;;;;;17.43;11.03;;;;;;;6.91;54.84;94389.53;5035078;28;20226;-81
2022/03/03 06:06:37;;;;;;;17.83;11.43;;;;;;;6.96;54.95;94384.91;5028487;28;20191;-81
2022/03/03 06:09:10;;;;;;;22.60;11.87;;;;;;;6.83;54.69;94353.78;5040908;28;20194;-82
2022/03/03 06:11:43;;;;;;;15.00;10.60;;;;;;;6.79;54.65;94338.78;5048303;28;20194;-79
2022/03/03 06:14:12;;;;;;;13.57;10.50;;;;;;;7.09;54.57;94372.81;5049023;28;20194;-81
2022/03/03 06:16:39;;;;;;;14.83;10.63;;;;;;;7.28;54.28;94383.09;5047900;28;20674;-79
2022/03/03 06:19:07;;;;;;;15.40;10.73;;;;;;;7.40;54.14;94381.28;5048823;28;20257;-82
2022/03/03 06:21:34;;;;;;;13.97;11.17;;;;;;;7.55;53.94;94386.84;5048362;28;20199;-84
2022/03/03 06:24:01;;;;;;;13.07;10.40;;;;;;;7.70;53.71;94390.66;5048470;28;20198;-80
2022/03/03 06:26:28;;;;;;;13.03;10.20;;;;;;;7.79;53.43;94374.63;5047331;28;20562;-82
2022/03/03 06:28:54;;;;;;;12.90;10.43;;;;;;;8.01;53.23;94375.34;5048617;28;20187;-81
2022/03/03 06:31:22;;;;;;;17.43;11.03;;;;;;;8.18;53.11;94369.63;5046705;28;20187;-82
2022/03/03 06:33:49;;;;;;;13.73;10.47;;;;;;;8.44;52.46;94384.47;5047871;28;20198;-80
2022/03/03 06:36:17;;;;;;;14.07;10.37;;;;;;;8.59;52.30;94341.53;5048684;28;20198;-88
2022/03/03 06:38:44;;;;;;;17.03;11.23;;;;;;;9.17;52.44;94382.31;5047994;28;20206;-83
2022/03/03 06:41:11;;;;;;;16.63;10.63;;;;;;;9.00;52.01;94314.94;5048146;28;20194;-80
2022/03/03 06:43:39;;;;;;;13.33;10.07;;;;;;;9.61;51.67;94382.59;5048177;28;20199;-79
2022/03/03 06:46:07;;;;;;;14.80;10.73;;;;;;;9.75;51.31;94380.38;5047182;28;20333;-81
2022/03/03 06:48:33;;;;;;;12.47;9.90;;;;;;;9.86;50.72;94384.53;5027566;28;20203;-81
2022/03/03 06:51:05;;;;;;;19.87;10.90;;;;;;;9.95;50.32;94378.56;5044403;28;20669;-81
2022/03/03 06:53:36;;;;;;;14.17;10.20;;;;;;;9.94;49.87;94376.97;5047121;28;20623;-81
2022/03/03 06:56:05;;;;;;;15.40;10.63;;;;;;;10.07;49.69;94389.41;5047556;28;20705;-79
2022/03/03 06:58:33;;;;;;;17.30;10.33;;;;;;;10.09;49.29;94389.25;5047682;28;20277;-82
2022/03/03 07:01:05;;;;;;;17.00;10.40;;;;;;;9.81;49.01;94345.84;5047286;28;20570;-82
2022/03/03 07:03:32;;;;;;;16.57;10.87;;;;;;;10.07;48.83;94399.63;5046996;28;20220;-81
2022/03/03 07:05:59;;;;;;;18.40;10.27;;;;;;;10.08;48.60;94397.88;5047329;28;20693;-81
2022/03/03 07:08:27;;;;;;;14.37;10.57;;;;;;;10.04;48.56;94389.69;5047113;28;20202;-88
2022/03/03 07:10:55;;;;;;;14.50;10.73;;;;;;;10.03;48.18;94386.34;5047343;28;20201;-81
2022/03/03 07:13:22;;;;;;;13.90;10.70;;;;;;;10.21;48.02;94403.47;5048370;28;20198;-81
2022/03/03 07:15:50;;;;;;;14.70;10.23;;;;;;;10.28;47.57;94402.78;5046965;28;20587;-81
2022/03/03 07:18:20;;;;;;;15.57;10.17;;;;;;;10.04;47.35;94348.81;5048205;28;21068;-85
2022/03/03 07:20:54;;;;;;;14.47;10.07;;;;;;;10.48;46.96;94402.66;5047032;28;20280;-83
2022/03/03 07:23:32;;;;;;;15.20;10.37;;;;;;;10.76;46.47;94401.66;5049872;28;20657;-82
2022/03/03 07:26:02;;;;;;;11.90;9.77;;;;;;;11.19;46.42;94378.84;5043562;28;20610;-79
2022/03/03 07:28:30;;;;;;;15.83;10.57;;;;;;;11.81;46.77;94387.22;5046017;28;20282;-81
2022/03/03 07:31:00;;;;;;;14.13;10.23;;;;;;;12.13;46.35;94383.19;5046444;28;20195;-82
2022/03/03 07:33:39;;;;;;;14.40;9.50;;;;;;;12.59;45.97;94387.03;5045948;28;20641;-80
2022/03/03 07:36:09;;;;;;;11.53;9.47;;;;;;;12.95;45.14;94389.31;5055822;28;20194;-83
2022/03/03 07:38:38;;;;;;;15.00;9.50;;;;;;;12.94;44.65;94319.22;5057972;28;20229;-87
2022/03/03 07:41:08;;;;;;;11.80;8.57;;;;;;;13.94;44.29;94363.34;5053844;28;20183;-79
2022/03/03 07:43:35;;;;;;;13.77;9.33;;;;;;;14.67;43.73;94377.66;5051881;28;20187;-81
2022/03/03 07:46:04;;;;;;;12.90;9.00;;;;;;;14.77;43.11;94337.06;5059357;28;20210;-81
2022/03/03 07:48:32;;;;;;;13.13;9.23;;;;;;;15.30;42.35;94386.06;5052545;28;20199;-86
2022/03/03 07:51:01;;;;;;;13.73;10.33;;;;;;;15.38;41.60;94386.00;5051487;28;20287;-85
2022/03/03 07:53:28;;;;;;;5.57;4.10;;;;;;;15.66;67.27;94385.44;5052527;28;20209;-82
2022/03/03 07:56:02;;;;;;;8.20;5.33;;;;;;;15.80;65.71;94348.56;5051723;28;20252;-82
2022/03/03 07:58:33;;;;;;;13.17;8.40;;;;;;;16.22;60.37;94388.41;5051012;28;20229;-84
2022/03/03 08:01:03;;;;;;;11.03;8.90;;;;;;;15.33;56.66;94272.38;5051331;28;20195;-83
2022/03/03 08:03:31;;;;;;;10.07;8.97;;;;;;;15.95;53.17;94395.00;5051628;28;20210;-81
2022/03/03 08:05:59;;;;;;;13.80;9.07;;;;;;;15.73;50.61;94383.78;5052057;28;20214;-83
2022/03/03 08:08:27;;;;;;;15.17;9.90;;;;;;;15.15;48.52;94331.13;5051788;28;20199;-84
2022/03/03 08:11:09;;;;;;;11.10;9.43;;;;;;;15.30;46.15;94398.97;5051643;28;20202;-80
2022/03/03 08:13:38;;;;;;;14.33;9.60;;;;;;;15.10;45.49;94397.81;5045370;28;20199;-81
2022/03/03 08:16:05;;;;;;;12.53;8.83;;;;;;;14.72;44.45;94359.97;5032589;28;20188;-86
2022/03/03 08:18:35;;;;;;;14.67;9.37;;;;;;;14.74;43.77;94396.63;5036583;28;20191;-79
2022/03/03 08:21:03;;;;;;;9.70;8.67;;;;;;;14.41;43.17;94364.28;5051590;28;20621;-87
2022/03/03 08:23:30;;;;;;;11.87;9.37;;;;;;;14.43;42.72;94391.47;5051459;28;20194;-79
2022/03/03 08:25:58;;;;;;;12.10;9.90;;;;;;;14.28;41.89;94406.78;5050605;28;20222;-81
2022/03/03 08:28:26;;;;;;;10.13;8.60;;;;;;;14.16;41.85;94392.72;5049728;28;20210;-76
2022/03/03 08:31:00;;;;;;;10.73;9.03;;;;;;;14.03;41.31;94392.41;5050495;28;20651;-77
2022/03/03 08:33:40;;;;;;;14.03;9.33;;;;;;;13.97;41.32;94391.31;5047545;28;20645;-76
2022/03/03 08:36:16;;;;;;;11.13;8.77;;;;;;;13.88;41.10;94394.06;5050253;28;20282;-77
2022/03/03 08:38:48;;;;;;;13.27;9.33;;;;;;;13.83;40.93;94389.44;5050224;28;20245;-77
2022/03/03 08:41:17;;;;;;;12.70;9.63;;;;;;;13.80;40.65;94389.75;5048574;28;20206;-78
2022/03/03 08:43:46;;;;;;;10.43;8.57;;;;;;;13.78;40.57;94400.22;5051296;28;20195;-81
2022/03/03 08:46:18;;;;;;;5.47;3.77;;;;;;;13.84;67.50;94375.59;5049944;28;20218;-79
2022/03/03 08:48:49;;;;;;;5.80;3.63;;;;;;;14.38;69.25;94373.16;5050094;28;20206;-77
2022/03/03 08:51:19;;;;;;;15.87;7.93;;;;;;;14.74;63.33;94388.09;5050120;28;20187;-81
2022/03/03 08:53:46;;;;;;;9.67;7.73;;;;;;;14.78;58.38;94389.34;5049056;28;20187;-76
2022/03/03 08:56:12;;;;;;;12.77;8.47;;;;;;;14.74;54.79;94394.03;5048639;28;20191;-80
2022/03/03 08:58:40;;;;;;;14.87;8.43;;;;;;;14.66;52.21;94383.78;5049968;28;20325;-81
2022/03/03 09:01:07;;;;;;;8.53;7.60;;;;;;;14.59;50.15;94388.00;5050845;28;20202;-82
2022/03/03 09:03:35;;;;;;;12.23;8.37;;;;;;;14.51;48.35;94383.72;5052330;28;20182;-81
2022/03/03 09:06:02;;;;;;;9.93;8.47;;;;;;;14.44;46.99;94379.38;5048448;28;20207;-79
2022/03/03 09:08:29;;;;;;;13.47;9.13;;;;;;;14.30;45.85;94370.63;5046855;28;20190;-79
2022/03/03 09:10:56;;;;;;;12.20;8.87;;;;;;;14.29;44.93;94387.81;5052331;28;20202;-80
2022/03/03 09:13:23;;;;;;;9.73;8.60;;;;;;;14.25;43.99;94383.19;5053071;28;20195;-80
2022/03/03 09:15:51;;;;;;;13.03;8.63;;;;;;;14.17;43.45;94385.78;5052651;28;20195;-81
2022/03/03 09:18:18;;;;;;;11.07;9.07;;;;;;;14.10;42.87;94374.56;5053258;28;20195;-83
2022/03/03 09:20:46;;;;;;;10.97;8.77;;;;;;;14.03;42.74;94382.13;5057248;28;20238;-83
2022/03/03 09:23:13;;;;;;;13.63;8.63;;;;;;;13.87;42.34;94370.16;5055075;28;20191;-80
2022/03/03 09:25:41;;;;;;;12.47;8.20;;;;;;;13.92;41.83;94383.28;5050282;28;20223;-81
2022/03/03 09:28:08;;;;;;;10.03;7.63;;;;;;;13.85;41.86;94387.47;5050670;28;20595;-76
2022/03/03 09:30:35;;;;;;;11.27;8.37;;;;;;;13.77;41.76;94382.38;5050334;28;20591;-81
2022/03/03 09:33:02;;;;;;;11.00;8.87;;;;;;;13.76;41.55;94391.06;5050885;28;20187;-77
2022/03/03 09:35:29;;;;;;;13.97;8.00;;;;;;;13.72;41.22;94385.44;5050316;28;20186;-78
2022/03/03 09:37:57;;;;;;;11.33;8.47;;;;;;;13.69;40.98;94396.06;5049244;28;20214;-78
2022/03/03 09:40:24;;;;;;;16.77;9.10;;;;;;;13.44;40.67;94355.97;5050275;28;20202;-75
2022/03/03 09:42:59;;;;;;;9.83;8.57;;;;;;;13.55;40.70;94376.94;5050470;28;20187;-78
2022/03/03 09:45:27;;;;;;;10.50;8.20;;;;;;;13.61;40.79;94387.56;5050310;28;20203;-83
2022/03/03 09:47:55;;;;;;;16.87;9.67;;;;;;;13.57;40.72;94392.22;5050385;28;20190;-80
2022/03/03 09:50:23;;;;;;;9.97;7.87;;;;;;;13.58;40.25;94387.88;5050631;28;20203;-81
2022/03/03 09:52:50;;;;;;;11.83;8.63;;;;;;;13.64;40.31;94384.66;5050527;28;20191;-82
2022/03/03 09:55:19;;;;;;;11.40;8.97;;;;;;;13.71;40.09;94373.56;5050328;28;20199;-80
2022/03/03 09:57:48;;;;;;;10.23;7.90;;;;;;;13.71;40.10;94349.63;5050099;28;20214;-82
2022/03/03 10:00:16;;;;;;;10.17;8.07;;;;;;;13.98;39.52;94374.13;5050138;28;20245;-82
2022/03/03 10:02:59;;;;;;;10.30;8.23;;;;;;;13.99;39.54;94362.88;5049353;28;20206;-79
2022/03/03 10:05:35;;;;;;;12.70;8.57;;;;;;;14.15;39.43;94373.09;5050173;28;20221;-79
2022/03/03 10:08:07;;;;;;;8.70;7.53;;;;;;;13.78;39.32;94296.63;5050758;28;20189;-79
2022/03/03 10:10:37;;;;;;;10.57;7.67;;;;;;;14.25;39.06;94367.75;5050116;28;20198;-75
2022/03/03 10:13:05;;;;;;;10.47;8.27;;;;;;;14.26;39.19;94365.00;5050191;28;20661;-81
2022/03/03 10:15:33;;;;;;;8.87;7.43;;;;;;;14.23;39.09;94361.97;5049791;28;20245;-78
2022/03/03 10:18:03;;;;;;;9.50;7.50;;;;;;;14.24;39.07;94369.50;5050029;28;20182;-76
2022/03/03 10:20:37;;;;;;;8.97;8.00;;;;;;;14.22;39.26;94375.78;5008455;28;1195162;-82
2022/03/03 10:23:07;;;;;;;8.53;7.60;;;;;;;14.20;39.16;94373.38;5050667;28;20190;-79
2022/03/03 10:25:38;;;;;;;9.83;8.07;;;;;;;14.13;38.95;94359.59;5049887;28;20234;-77
2022/03/03 10:28:11;;;;;;;11.47;8.27;;;;;;;14.15;38.99;94372.28;5049629;28;20248;-79
2022/03/03 10:30:58;;;;;;;11.90;7.30;;;;;;;14.13;38.66;94367.31;5049548;28;20229;-78
2022/03/03 10:33:29;;;;;;;9.30;7.30;;;;;;;14.12;38.81;94360.56;5050681;28;20373;-77
2022/03/03 10:36:01;;;;;;;9.80;7.70;;;;;;;14.02;38.73;94349.69;5050144;28;20206;-74
2022/03/03 10:38:28;;;;;;;20.13;8.03;;;;;;;14.07;38.91;94367.97;5050810;28;20209;-80
2022/03/03 10:40:57;;;;;;;10.93;7.77;;;;;;;13.99;38.94;94358.53;5050242;28;20670;-81
2022/03/03 10:43:23;;;;;;;11.20;7.73;;;;;;;13.95;39.03;94359.84;5050700;28;20191;-81
2022/03/03 10:45:55;;;;;;;9.27;8.07;;;;;;;13.81;38.86;94338.19;5050346;28;20223;-80
2022/03/03 10:48:24;;;;;;;8.57;7.67;;;;;;;13.89;38.88;94357.13;5051728;28;20190;-82
2022/03/03 10:50:52;;;;;;;9.27;8.00;;;;;;;13.85;39.04;94348.13;5052011;28;20196;-75
2022/03/03 10:53:20;;;;;;;9.83;8.13;;;;;;;13.81;38.94;94350.22;5049671;28;20195;-81
2022/03/03 10:56:06;;;;;;;10.47;7.80;;;;;;;13.75;39.02;94348.34;5049978;28;20206;-79
2022/03/03 10:58:53;;;;;;;8.23;7.33;;;;;;;13.50;39.03;94316.75;5051731;28;20218;-80
2022/03/03 11:01:23;;;;;;;9.93;8.23;;;;;;;13.54;39.34;94341.97;5053555;28;20187;-82
2022/03/03 11:03:50;;;;;;;9.90;8.00;;;;;;;13.55;39.41;94355.59;5060118;28;20621;-76
2022/03/03 11:06:22;;;;;;;10.17;7.87;;;;;;;13.48;39.42;94357.25;5058302;28;20294;-79
2022/03/03 11:08:50;;;;;;;9.77;8.17;;;;;;;13.42;39.18;94345.84;5055352;28;20677;-78
2022/03/03 11:11:20;;;;;;;11.03;7.73;;;;;;;13.37;39.22;94347.28;5051055;28;20198;-81
2022/03/03 11:13:49;;;;;;;8.83;7.77;;;;;;;13.32;39.34;94349.56;5051032;28;20585;-81
2022/03/03 11:16:17;;;;;;;13.17;8.53;;;;;;;13.26;39.38;94356.16;5053958;28;20661;-73
2022/03/03 11:18:45;;;;;;;9.63;7.37;;;;;;;13.21;39.32;94348.06;5052592;28;20634;-82
2022/03/03 11:21:14;;;;;;;10.00;7.63;;;;;;;13.19;39.60;94355.16;5053540;28;20219;-80
2022/03/03 11:23:43;;;;;;;11.37;7.60;;;;;;;13.15;39.49;94353.88;5054348;28;20183;-81
2022/03/03 11:26:20;;;;;;;9.77;7.63;;;;;;;13.07;39.30;94349.53;5053289;28;20222;-80
2022/03/03 11:28:59;;;;;;;15.00;8.17;;;;;;;13.03;39.31;94346.47;5053809;28;20276;-81
2022/03/03 11:31:30;;;;;;;8.70;7.70;;;;;;;12.99;39.85;94347.75;5054057;28;20652;-81
2022/03/03 11:34:22;;;;;;;10.47;8.43;;;;;;;12.95;39.89;94350.81;5053578;28;20660;-81
2022/03/03 11:36:49;;;;;;;8.37;7.47;;;;;;;12.87;39.99;94345.72;5053511;28;20199;-83
2022/03/03 11:39:35;;;;;;;10.03;8.67;;;;;;;12.88;39.83;94342.16;5053370;28;20670;-79